createdAt,value
2023-06-02T00:01:34.003Z,9.12
2023-06-02T00:04:04.678Z,9.06
2023-06-02T00:06:34.549Z,9.07
2023-06-02T00:09:05.526Z,9.16
2023-06-02T00:11:36.257Z,9.12
2023-06-02T00:14:04.971Z,9.12
2023-06-02T00:16:33.666Z,9.11
2023-06-02T00:19:00.718Z,9.00
2023-06-02T00:21:27.991Z,9.03
2023-06-02T00:23:54.906Z,9.14
2023-06-02T00:26:21.923Z,9.10
2023-06-02T00:28:48.572Z,9.11
2023-06-02T00:31:15.290Z,9.02
2023-06-02T00:33:42.769Z,9.11
2023-06-02T00:36:09.734Z,8.99
2023-06-02T00:38:36.542Z,9.01
2023-06-02T00:41:03.257Z,8.97
2023-06-02T00:43:29.842Z,8.91
2023-06-02T00:45:56.418Z,8.95
2023-06-02T00:48:23.306Z,8.78
2023-06-02T00:50:50.121Z,8.81
2023-06-02T00:53:16.871Z,8.80
2023-06-02T00:55:44.438Z,8.76
2023-06-02T00:58:14.669Z,8.80
2023-06-02T01:00:45.035Z,8.78
2023-06-02T01:03:15.620Z,8.70
2023-06-02T01:05:45.394Z,8.60
2023-06-02T01:08:14.125Z,8.66
2023-06-02T01:10:41.857Z,8.62
2023-06-02T01:13:08.732Z,8.57
2023-06-02T01:15:35.485Z,8.46
2023-06-02T01:18:06.540Z,8.50
2023-06-02T01:20:33.717Z,8.53
2023-06-02T01:23:16.667Z,8.49
2023-06-02T01:25:45.394Z,8.31
2023-06-02T01:28:12.219Z,8.08
2023-06-02T01:30:39.022Z,7.91
2023-06-02T01:33:12.063Z,7.89
2023-06-02T01:35:46.922Z,8.08
2023-06-02T01:38:15.526Z,8.13
2023-06-02T01:40:43.215Z,7.98
2023-06-02T01:43:11.162Z,8.11
2023-06-02T01:45:38.749Z,8.14
2023-06-02T01:48:06.884Z,8.20
2023-06-02T01:50:36.119Z,8.14
2023-06-02T01:53:03.203Z,8.10
2023-06-02T01:55:30.011Z,8.08
2023-06-02T01:57:56.830Z,8.01
2023-06-02T02:00:24.010Z,8.02
2023-06-02T02:02:51.959Z,8.01
2023-06-02T02:05:19.886Z,7.82
2023-06-02T02:07:49.154Z,7.65
2023-06-02T02:10:16.156Z,7.55
2023-06-02T02:12:45.739Z,7.63
2023-06-02T02:15:12.471Z,7.54
2023-06-02T02:17:46.220Z,7.63
2023-06-02T02:20:18.237Z,7.44
2023-06-02T02:22:47.382Z,7.43
2023-06-02T02:25:14.896Z,7.48
2023-06-02T02:27:41.908Z,7.38
2023-06-02T02:30:09.431Z,7.35
2023-06-02T02:32:39.484Z,7.31
2023-06-02T02:35:06.772Z,7.25
2023-06-02T02:37:45.898Z,7.41
2023-06-02T02:40:14.194Z,7.17
2023-06-02T02:42:41.453Z,6.94
2023-06-02T02:45:09.466Z,6.97
2023-06-02T02:47:36.373Z,7.06
2023-06-02T02:50:03.946Z,7.13
2023-06-02T02:52:30.942Z,6.93
2023-06-02T02:54:57.846Z,6.89
2023-06-02T02:57:24.726Z,6.86
2023-06-02T02:59:52.165Z,6.93
2023-06-02T03:02:19.184Z,7.06
2023-06-02T03:04:47.324Z,7.03
2023-06-02T03:07:14.711Z,6.90
2023-06-02T03:09:42.190Z,6.83
2023-06-02T03:12:09.216Z,7.02
2023-06-02T03:14:36.001Z,6.94
2023-06-02T03:17:03.876Z,6.97
2023-06-02T03:19:30.815Z,7.08
2023-06-02T03:21:57.794Z,6.91
2023-06-02T03:24:25.279Z,6.81
2023-06-02T03:26:56.762Z,6.56
2023-06-02T03:29:24.180Z,6.55
2023-06-02T03:31:56.338Z,6.62
2023-06-02T03:34:23.952Z,6.65
2023-06-02T03:36:50.832Z,6.69
2023-06-02T03:39:17.746Z,6.70
2023-06-02T03:41:44.510Z,6.69
2023-06-02T03:44:11.389Z,6.61
2023-06-02T03:46:38.204Z,6.88
2023-06-02T03:49:04.965Z,6.81
2023-06-02T03:51:31.681Z,6.79
2023-06-02T03:53:58.412Z,6.64
2023-06-02T03:56:25.271Z,6.70
2023-06-02T03:58:52.205Z,6.73
2023-06-02T04:01:19.183Z,6.91
2023-06-02T04:03:46.218Z,6.79
2023-06-02T04:06:13.896Z,7.00
2023-06-02T04:08:40.948Z,7.13
2023-06-02T04:11:07.824Z,7.55
2023-06-02T04:13:34.562Z,7.73
2023-06-02T04:16:02.108Z,8.33
2023-06-02T04:18:31.415Z,8.87
2023-06-02T04:20:59.064Z,9.25
2023-06-02T04:23:26.005Z,9.85
2023-06-02T04:25:52.729Z,9.82
2023-06-02T04:28:20.805Z,9.24
2023-06-02T04:30:50.217Z,9.82
2023-06-02T04:33:18.298Z,10.12
2023-06-02T04:35:45.074Z,10.54
2023-06-02T04:38:13.044Z,10.70
2023-06-02T04:40:40.204Z,10.91
2023-06-02T04:43:06.988Z,11.56
2023-06-02T04:45:34.997Z,11.64
2023-06-02T04:48:02.628Z,11.56
2023-06-02T04:50:29.342Z,11.24
2023-06-02T04:52:56.152Z,10.16
2023-06-02T04:55:22.948Z,9.60
2023-06-02T04:57:49.616Z,9.18
2023-06-02T05:00:17.597Z,9.10
2023-06-02T05:02:44.341Z,8.96
2023-06-02T05:05:11.330Z,8.62
2023-06-02T05:07:38.177Z,8.88
2023-06-02T05:10:05.683Z,9.47
2023-06-02T05:12:32.597Z,9.38
2023-06-02T05:14:59.348Z,9.44
2023-06-02T05:17:30.211Z,9.09
2023-06-02T05:19:57.011Z,9.05
2023-06-02T05:22:23.776Z,9.24
2023-06-02T05:24:50.887Z,9.52
2023-06-02T05:27:17.978Z,9.64
2023-06-02T05:29:44.693Z,9.23
2023-06-02T05:32:13.285Z,9.25
2023-06-02T05:34:41.165Z,9.50
2023-06-02T05:37:07.887Z,10.05
2023-06-02T05:39:34.608Z,10.30
2023-06-02T05:42:01.434Z,10.29
2023-06-02T05:44:28.164Z,10.50
2023-06-02T05:46:55.306Z,10.53
2023-06-02T05:49:22.446Z,11.44
2023-06-02T05:51:49.729Z,12.12
2023-06-02T05:54:18.267Z,12.20
2023-06-02T05:56:45.489Z,12.73
2023-06-02T05:59:12.845Z,13.39
2023-06-02T06:01:48.122Z,13.09
2023-06-02T06:04:17.347Z,13.23
2023-06-02T06:06:44.163Z,13.62
2023-06-02T06:09:14.362Z,13.77
2023-06-02T06:11:42.421Z,14.52
2023-06-02T06:14:11.360Z,14.25
2023-06-02T06:16:47.375Z,14.46
2023-06-02T06:19:15.239Z,14.84
2023-06-02T06:21:44.974Z,14.34
2023-06-02T06:24:14.896Z,14.41
2023-06-02T06:26:46.088Z,14.50
2023-06-02T06:29:12.865Z,14.31
2023-06-02T06:31:44.343Z,14.95
2023-06-02T06:34:11.806Z,15.47
2023-06-02T06:36:38.552Z,15.77
2023-06-02T06:39:05.465Z,15.11
2023-06-02T06:41:34.042Z,14.90
2023-06-02T06:44:01.081Z,15.38
2023-06-02T06:46:27.773Z,15.30
2023-06-02T06:48:54.646Z,15.64
2023-06-02T06:51:21.423Z,16.50
2023-06-02T06:53:48.106Z,16.64
2023-06-02T06:56:14.877Z,15.69
2023-06-02T06:58:41.556Z,16.17
2023-06-02T07:01:08.229Z,16.22
2023-06-02T07:03:35.049Z,16.48
2023-06-02T07:06:02.256Z,16.32
2023-06-02T07:08:30.981Z,15.96
2023-06-02T07:10:57.709Z,16.17
2023-06-02T07:13:27.443Z,16.53
2023-06-02T07:15:54.319Z,16.62
2023-06-02T07:18:22.273Z,16.80
2023-06-02T07:20:49.020Z,15.69
2023-06-02T07:23:15.754Z,16.33
2023-06-02T07:25:42.475Z,17.01
2023-06-02T07:28:09.186Z,15.45
2023-06-02T07:30:36.941Z,16.24
2023-06-02T07:33:03.835Z,16.99
2023-06-02T07:35:30.785Z,17.21
2023-06-02T07:37:57.506Z,17.07
2023-06-02T07:40:24.255Z,17.08
2023-06-02T07:42:51.059Z,17.35
2023-06-02T07:45:17.865Z,17.19
2023-06-02T07:47:44.798Z,17.16
2023-06-02T07:50:11.627Z,17.48
2023-06-02T07:52:39.066Z,17.54
2023-06-02T07:55:06.537Z,18.06
2023-06-02T07:57:33.291Z,17.78
2023-06-02T08:00:09.113Z,17.86
2023-06-02T08:02:36.026Z,18.69
2023-06-02T08:05:02.927Z,19.04
2023-06-02T08:07:29.640Z,17.56
2023-06-02T08:09:57.044Z,18.31
2023-06-02T08:12:23.768Z,19.22
2023-06-02T08:14:50.542Z,18.42
2023-06-02T08:17:17.245Z,19.12
2023-06-02T08:19:43.897Z,18.79
2023-06-02T08:22:11.149Z,18.57
2023-06-02T08:24:38.109Z,18.64
2023-06-02T08:27:05.922Z,18.31
2023-06-02T08:29:33.851Z,18.41
2023-06-02T08:32:00.829Z,19.07
2023-06-02T08:34:28.746Z,19.13
2023-06-02T08:36:58.562Z,19.01
2023-06-02T08:42:14.707Z,19.05
2023-06-02T08:44:42.774Z,17.72
2023-06-02T08:47:13.736Z,17.53
2023-06-02T08:49:43.613Z,18.17
2023-06-02T08:52:16.551Z,17.89
2023-06-02T08:54:43.418Z,18.07
2023-06-02T08:57:14.120Z,18.06
2023-06-02T08:59:41.136Z,18.10
2023-06-02T09:02:08.233Z,17.78
2023-06-02T09:04:35.097Z,18.32
2023-06-02T09:07:14.199Z,18.31
2023-06-02T09:09:43.042Z,18.38
2023-06-02T09:12:10.327Z,17.10
2023-06-02T09:14:38.220Z,17.84
2023-06-02T09:17:23.584Z,17.19
2023-06-02T09:19:51.997Z,17.92
2023-06-02T09:22:18.831Z,17.43
2023-06-02T09:24:45.554Z,17.23
2023-06-02T09:27:17.776Z,17.62
2023-06-02T09:29:46.008Z,17.50
2023-06-02T09:32:17.627Z,17.48
2023-06-02T09:34:46.887Z,17.59
2023-06-02T09:37:16.081Z,17.31
2023-06-02T09:39:50.689Z,17.72
2023-06-02T09:42:19.158Z,17.51
2023-06-02T09:45:06.149Z,17.92
2023-06-02T09:47:43.142Z,17.77
2023-06-02T09:50:14.396Z,17.98
2023-06-02T09:52:41.211Z,16.93
2023-06-02T09:55:08.765Z,17.67
2023-06-02T09:57:36.126Z,17.63
2023-06-02T10:00:03.535Z,17.11
2023-06-02T10:02:30.300Z,17.14
2023-06-02T10:04:57.175Z,17.50
2023-06-02T10:07:26.438Z,17.46
2023-06-02T10:10:14.382Z,16.86
2023-06-02T10:12:44.012Z,16.93
2023-06-02T10:15:29.771Z,17.21
2023-06-02T10:18:07.523Z,16.91
2023-06-02T10:20:41.945Z,16.78
2023-06-02T10:23:53.369Z,17.37
2023-06-02T10:26:47.298Z,17.07
2023-06-02T10:29:16.238Z,17.57
2023-06-02T10:31:44.401Z,17.48
2023-06-02T10:34:40.123Z,17.26
2023-06-02T10:37:07.266Z,17.29
2023-06-02T10:39:40.072Z,16.91
2023-06-02T10:42:07.760Z,16.65
2023-06-02T10:44:34.457Z,17.07
2023-06-02T10:47:19.375Z,17.03
2023-06-02T10:50:05.360Z,17.16
2023-06-02T10:53:13.624Z,17.56
2023-06-02T10:55:41.571Z,17.56
2023-06-02T10:58:12.379Z,17.14
2023-06-02T11:00:44.855Z,17.48
2023-06-02T11:03:23.824Z,17.04
2023-06-02T11:05:51.822Z,17.18
2023-06-02T11:08:19.918Z,16.78
2023-06-02T11:10:52.032Z,17.25
2023-06-02T11:13:19.773Z,17.57
2023-06-02T11:15:56.082Z,17.51
2023-06-02T11:18:34.674Z,17.91
2023-06-02T11:21:04.570Z,17.27
2023-06-02T11:23:31.961Z,17.46
2023-06-02T11:26:01.957Z,17.17
2023-06-02T11:28:29.925Z,17.01
2023-06-02T11:31:13.955Z,17.87
2023-06-02T11:33:43.139Z,17.67
2023-06-02T11:36:12.196Z,17.64
2023-06-02T11:38:40.983Z,17.15
2023-06-02T11:41:16.242Z,17.21
2023-06-02T11:43:52.154Z,17.46
2023-06-02T11:46:20.600Z,17.43
2023-06-02T11:48:47.986Z,16.88
2023-06-02T11:51:17.352Z,16.62
2023-06-02T11:53:47.450Z,17.26
2023-06-02T11:56:15.112Z,16.95
2023-06-02T11:58:46.586Z,16.80
2023-06-02T12:01:15.994Z,16.54
2023-06-02T12:03:54.992Z,17.37
2023-06-02T12:06:22.541Z,17.39
2023-06-02T12:08:49.205Z,17.26
2023-06-02T12:11:20.017Z,17.14
2023-06-02T12:14:04.368Z,16.93
2023-06-02T12:16:31.707Z,16.73
2023-06-02T12:19:21.756Z,17.17
2023-06-02T12:21:57.772Z,16.95
2023-06-02T12:24:31.044Z,17.06
2023-06-02T12:26:58.544Z,16.91
2023-06-02T12:29:25.781Z,17.23
2023-06-02T12:32:08.667Z,17.27
2023-06-02T12:34:35.412Z,17.39
2023-06-02T12:37:02.701Z,16.91
2023-06-02T12:39:29.436Z,17.15
2023-06-02T12:41:56.170Z,17.65
2023-06-02T12:44:22.900Z,17.10
2023-06-02T12:46:49.862Z,17.30
2023-06-02T12:49:16.676Z,17.05
2023-06-02T12:51:43.920Z,16.98
2023-06-02T12:54:10.766Z,17.08
2023-06-02T12:56:41.911Z,17.45
2023-06-02T12:59:13.424Z,17.49
2023-06-02T13:01:41.115Z,17.64
2023-06-02T13:04:08.692Z,17.91
2023-06-02T13:06:37.939Z,17.78
2023-06-02T13:09:05.826Z,17.87
2023-06-02T13:11:32.663Z,17.28
2023-06-02T13:13:59.841Z,17.58
2023-06-02T13:16:27.054Z,17.45
2023-06-02T13:18:54.309Z,17.73
2023-06-02T13:21:21.178Z,17.01
2023-06-02T13:23:54.815Z,16.87
2023-06-02T13:26:21.898Z,16.98
2023-06-02T13:28:48.941Z,17.42
2023-06-02T13:31:15.636Z,17.31
2023-06-02T13:33:42.394Z,17.42
2023-06-02T13:36:09.141Z,16.94
2023-06-02T13:38:36.320Z,16.94
2023-06-02T13:41:03.394Z,16.91
2023-06-02T13:43:30.282Z,17.02
2023-06-02T13:45:56.946Z,16.49
2023-06-02T13:48:23.752Z,17.04
2023-06-02T13:50:50.497Z,16.88
2023-06-02T13:53:17.546Z,16.29
2023-06-02T13:55:44.423Z,16.46
2023-06-02T13:58:11.115Z,16.95
2023-06-02T14:00:38.306Z,16.64
2023-06-02T14:03:05.495Z,16.64
2023-06-02T14:05:32.415Z,17.03
2023-06-02T14:07:59.174Z,16.60
2023-06-02T14:10:26.623Z,16.75
2023-06-02T14:12:53.431Z,16.88
2023-06-02T14:15:20.297Z,16.52
2023-06-02T14:17:47.221Z,16.86
2023-06-02T14:20:14.074Z,15.96
2023-06-02T14:22:43.300Z,16.51
2023-06-02T14:25:10.617Z,16.72
2023-06-02T14:27:37.401Z,17.00
2023-06-02T14:30:04.604Z,16.29
2023-06-02T14:32:31.394Z,16.66
2023-06-02T14:34:58.172Z,16.53
2023-06-02T14:37:24.879Z,16.16
2023-06-02T14:39:51.603Z,15.98
2023-06-02T14:42:18.303Z,16.56
2023-06-02T14:44:44.975Z,17.10
2023-06-02T14:47:11.789Z,16.17
2023-06-02T14:49:38.557Z,16.64
2023-06-02T14:52:05.457Z,16.61
2023-06-02T14:54:32.246Z,16.51
2023-06-02T14:56:59.000Z,16.29
2023-06-02T14:59:25.641Z,16.59
2023-06-02T15:01:52.409Z,16.13
2023-06-02T15:04:19.188Z,16.65
2023-06-02T15:06:45.906Z,16.21
2023-06-02T15:09:12.609Z,15.88
2023-06-02T15:11:39.307Z,16.16
2023-06-02T15:14:06.086Z,15.91
2023-06-02T15:16:33.165Z,16.18
2023-06-02T15:18:59.870Z,16.52
2023-06-02T15:21:26.631Z,16.27
2023-06-02T15:23:53.398Z,16.05
2023-06-02T15:26:20.062Z,15.84
2023-06-02T15:28:46.708Z,15.97
2023-06-02T15:31:13.538Z,15.87
2023-06-02T15:33:40.803Z,15.53
2023-06-02T15:36:07.752Z,16.35
2023-06-02T15:38:34.644Z,16.42
2023-06-02T15:41:01.327Z,16.19
2023-06-02T15:43:28.062Z,16.01
2023-06-02T15:45:54.976Z,15.82
2023-06-02T15:48:21.846Z,15.38
2023-06-02T15:50:48.633Z,15.88
2023-06-02T15:53:15.973Z,16.18
2023-06-02T15:55:42.981Z,16.32
2023-06-02T15:58:09.654Z,16.13
2023-06-02T16:00:36.701Z,15.85
2023-06-02T16:03:03.687Z,16.27
2023-06-02T16:05:30.556Z,15.69
2023-06-02T16:07:57.378Z,15.79
2023-06-02T16:10:24.224Z,16.05
2023-06-02T16:12:52.539Z,16.13
2023-06-02T16:15:19.481Z,15.99
2023-06-02T16:17:46.275Z,16.26
2023-06-02T16:20:14.809Z,16.31
2023-06-02T16:22:42.378Z,15.98
2023-06-02T16:25:09.766Z,15.71
2023-06-02T16:27:36.998Z,15.79
2023-06-02T16:30:04.981Z,15.89
2023-06-02T16:32:32.206Z,16.29
2023-06-02T16:35:00.218Z,16.54
2023-06-02T16:37:27.580Z,15.75
2023-06-02T16:39:54.246Z,15.71
2023-06-02T16:42:20.905Z,15.78
2023-06-02T16:44:48.118Z,15.98
2023-06-02T16:47:14.795Z,16.04
2023-06-02T16:49:41.480Z,15.98
2023-06-02T16:52:08.210Z,16.13
2023-06-02T16:54:35.368Z,16.01
2023-06-02T16:57:02.349Z,15.89
2023-06-02T16:59:29.379Z,16.06
2023-06-02T17:01:56.088Z,16.09
2023-06-02T17:04:22.935Z,15.86
2023-06-02T17:06:49.756Z,15.65
2023-06-02T17:09:17.463Z,15.40
2023-06-02T17:11:44.626Z,15.90
2023-06-02T17:14:11.396Z,15.38
2023-06-02T17:16:38.170Z,15.60
2023-06-02T17:19:07.940Z,15.56
2023-06-02T17:21:34.806Z,15.11
2023-06-02T17:24:01.516Z,15.37
2023-06-02T17:26:28.221Z,15.48
2023-06-02T17:28:54.958Z,15.64
2023-06-02T17:31:22.252Z,15.48
2023-06-02T17:33:49.060Z,15.38
2023-06-02T17:36:16.013Z,15.19
2023-06-02T17:38:42.821Z,15.39
2023-06-02T17:41:11.229Z,15.41
2023-06-02T17:43:38.172Z,15.03
2023-06-02T17:46:04.946Z,15.29
2023-06-02T17:48:31.607Z,15.36
2023-06-02T17:50:58.317Z,15.40
2023-06-02T17:53:24.956Z,15.21
2023-06-02T17:55:51.798Z,15.00
2023-06-02T17:58:18.644Z,14.71
2023-06-02T18:00:45.770Z,14.60
2023-06-02T18:03:13.153Z,14.76
2023-06-02T18:05:39.914Z,14.45
2023-06-02T18:08:06.664Z,14.52
2023-06-02T18:10:33.353Z,14.32
2023-06-02T18:13:00.116Z,14.30
2023-06-02T18:15:27.250Z,14.24
2023-06-02T18:17:54.356Z,14.79
2023-06-02T18:20:21.597Z,14.78
2023-06-02T18:22:48.772Z,14.57
2023-06-02T18:25:16.151Z,14.54
2023-06-02T18:27:43.206Z,14.48
2023-06-02T18:30:10.447Z,14.37
2023-06-02T18:32:37.332Z,14.34
2023-06-02T18:35:04.583Z,14.55
2023-06-02T18:37:31.665Z,14.21
2023-06-02T18:39:58.468Z,14.35
2023-06-02T18:42:25.288Z,14.44
2023-06-02T18:44:52.179Z,14.05
2023-06-02T18:47:20.899Z,14.03
2023-06-02T18:49:47.966Z,13.88
2023-06-02T18:52:14.675Z,14.00
2023-06-02T18:54:43.132Z,14.02
2023-06-02T18:57:10.795Z,14.12
2023-06-02T18:59:37.585Z,14.11
2023-06-02T19:02:04.757Z,14.13
2023-06-02T19:04:33.273Z,14.10
2023-06-02T19:07:01.061Z,13.87
2023-06-02T19:09:27.988Z,14.05
2023-06-02T19:11:54.752Z,14.17
2023-06-02T19:14:21.858Z,14.01
2023-06-02T19:16:48.967Z,13.75
2023-06-02T19:19:18.276Z,13.99
2023-06-02T19:21:45.157Z,13.72
2023-06-02T19:24:12.488Z,13.47
2023-06-02T19:26:39.313Z,13.75
2023-06-02T19:29:06.049Z,13.65
2023-06-02T19:31:32.802Z,13.52
2023-06-02T19:34:00.636Z,13.24
2023-06-02T19:36:28.484Z,13.53
2023-06-02T19:38:58.515Z,13.65
2023-06-02T19:41:25.255Z,13.57
2023-06-02T19:43:51.911Z,13.85
2023-06-02T19:46:18.636Z,13.38
2023-06-02T19:48:45.654Z,13.34
2023-06-02T19:51:12.356Z,13.29
2023-06-02T19:53:39.135Z,13.15
2023-06-02T19:56:07.343Z,13.14
2023-06-02T19:58:34.784Z,13.16
2023-06-02T20:01:01.609Z,13.51
2023-06-02T20:03:28.991Z,13.43
2023-06-02T20:05:58.034Z,13.48
2023-06-02T20:08:28.351Z,13.21
2023-06-02T20:10:55.042Z,13.02
2023-06-02T20:13:23.298Z,12.86
2023-06-02T20:15:51.308Z,12.99
2023-06-02T20:18:18.590Z,12.92
2023-06-02T20:20:45.707Z,12.98
2023-06-02T20:23:12.851Z,13.02
2023-06-02T20:25:39.686Z,12.94
2023-06-02T20:28:08.433Z,12.92
2023-06-02T20:30:36.109Z,12.85
2023-06-02T20:33:04.349Z,13.04
2023-06-02T20:35:31.727Z,12.92
2023-06-02T20:37:58.965Z,12.90
2023-06-02T20:40:25.784Z,13.03
2023-06-02T20:42:52.588Z,13.04
2023-06-02T20:45:21.959Z,12.96
2023-06-02T20:47:49.103Z,13.08
2023-06-02T20:50:16.316Z,12.81
2023-06-02T20:52:43.178Z,13.00
2023-06-02T20:55:10.041Z,12.77
2023-06-02T20:57:36.823Z,12.92
2023-06-02T21:00:06.238Z,13.07
2023-06-02T21:02:33.888Z,12.64
2023-06-02T21:05:01.129Z,12.96
2023-06-02T21:07:29.439Z,12.87
2023-06-02T21:09:56.463Z,12.74
2023-06-02T21:12:23.218Z,12.79
2023-06-02T21:14:49.910Z,12.84
2023-06-02T21:17:17.362Z,12.77
2023-06-02T21:19:44.072Z,12.87
2023-06-02T21:22:10.756Z,12.88
2023-06-02T21:24:37.434Z,13.06
2023-06-02T21:27:04.960Z,13.22
2023-06-02T21:29:31.648Z,13.03
2023-06-02T21:31:58.653Z,13.10
2023-06-02T21:34:25.474Z,13.15
2023-06-02T21:36:52.193Z,13.41
2023-06-02T21:39:18.855Z,13.31
2023-06-02T21:41:46.897Z,12.89
2023-06-02T21:44:13.583Z,12.71
2023-06-02T21:46:40.913Z,12.85
2023-06-02T21:49:07.861Z,13.17
2023-06-02T21:51:34.637Z,13.22
2023-06-02T21:54:01.410Z,13.27
2023-06-02T21:56:28.209Z,13.23
2023-06-02T21:58:54.953Z,13.19
2023-06-02T22:01:22.157Z,13.24
2023-06-02T22:03:49.086Z,13.17
2023-06-02T22:06:16.147Z,13.25
2023-06-02T22:08:43.867Z,13.18
2023-06-02T22:11:10.641Z,13.08
2023-06-02T22:13:37.372Z,13.07
2023-06-02T22:16:04.311Z,13.11
2023-06-02T22:18:30.993Z,13.24
2023-06-02T22:20:57.712Z,13.17
2023-06-02T22:23:24.620Z,12.92
2023-06-02T22:25:51.300Z,12.83
2023-06-02T22:28:18.100Z,12.81
2023-06-02T22:30:44.872Z,12.85
2023-06-02T22:33:11.688Z,13.01
2023-06-02T22:35:38.487Z,13.01
2023-06-02T22:38:05.288Z,12.77
2023-06-02T22:40:32.009Z,12.71
2023-06-02T22:42:58.679Z,12.84
2023-06-02T22:45:25.636Z,12.94
2023-06-02T22:47:52.403Z,12.82
2023-06-02T22:50:19.186Z,12.71
2023-06-02T22:52:46.283Z,12.93
2023-06-02T22:55:13.118Z,13.11
2023-06-02T22:57:39.828Z,13.06
2023-06-02T23:00:07.948Z,12.97
2023-06-02T23:02:34.735Z,12.92
2023-06-02T23:05:01.547Z,12.85
2023-06-02T23:07:28.455Z,12.98
2023-06-02T23:09:55.453Z,12.86
2023-06-02T23:12:22.313Z,12.93
2023-06-02T23:14:49.266Z,12.91
2023-06-02T23:17:16.111Z,12.88
2023-06-02T23:19:42.770Z,12.90
2023-06-02T23:22:09.510Z,12.99
2023-06-02T23:24:36.218Z,13.03
2023-06-02T23:27:02.931Z,12.76
2023-06-02T23:29:29.667Z,12.79
2023-06-02T23:31:56.357Z,12.80
2023-06-02T23:34:23.464Z,12.75
2023-06-02T23:36:50.132Z,12.52
2023-06-02T23:39:16.779Z,12.61
2023-06-02T23:41:43.426Z,12.61
2023-06-02T23:44:10.130Z,12.39
2023-06-02T23:46:36.797Z,12.58
2023-06-02T23:49:03.575Z,12.75
2023-06-02T23:51:30.331Z,12.68
2023-06-02T23:53:57.107Z,12.57
2023-06-02T23:56:23.767Z,12.43
2023-06-02T23:58:50.450Z,12.54
